sensor_id;sensor_type;location;lat;lon;timestamp;temperature;humidity
11152;DHT22;5630;49.342;10.802;2023-12-22T00:02:19;4.00;99.90
11152;DHT22;5630;49.342;10.802;2023-12-22T00:04:45;4.00;99.90
11152;DHT22;5630;49.342;10.802;2023-12-22T00:07:10;4.00;99.90
11152;DHT22;5630;49.342;10.802;2023-12-22T00:09:36;4.00;99.90
11152;DHT22;5630;49.342;10.802;2023-12-22T00:12:02;4.00;99.90
11152;DHT22;5630;49.342;10.802;2023-12-22T00:14:27;4.00;99.90
11152;DHT22;5630;49.342;10.802;2023-12-22T00:16:53;4.00;99.90
11152;DHT22;5630;49.342;10.802;2023-12-22T00:19:18;4.00;99.90
11152;DHT22;5630;49.342;10.802;2023-12-22T00:21:44;4.00;99.90
11152;DHT22;5630;49.342;10.802;2023-12-22T00:24:09;4.00;99.90
11152;DHT22;5630;49.342;10.802;2023-12-22T00:26:35;4.00;99.90
11152;DHT22;5630;49.342;10.802;2023-12-22T00:29:00;3.90;99.90
11152;DHT22;5630;49.342;10.802;2023-12-22T00:31:26;3.90;99.90
11152;DHT22;5630;49.342;10.802;2023-12-22T00:33:51;3.90;99.90
11152;DHT22;5630;49.342;10.802;2023-12-22T00:36:17;4.00;99.90
11152;DHT22;5630;49.342;10.802;2023-12-22T00:38:44;4.00;99.90
11152;DHT22;5630;49.342;10.802;2023-12-22T00:41:10;3.90;99.90
11152;DHT22;5630;49.342;10.802;2023-12-22T00:43:35;3.90;99.90
11152;DHT22;5630;49.342;10.802;2023-12-22T00:46:01;3.90;99.90
11152;DHT22;5630;49.342;10.802;2023-12-22T00:48:27;3.80;99.90
11152;DHT22;5630;49.342;10.802;2023-12-22T00:50:53;3.90;99.90
11152;DHT22;5630;49.342;10.802;2023-12-22T00:53:19;3.80;99.90
11152;DHT22;5630;49.342;10.802;2023-12-22T00:55:44;3.90;99.90
11152;DHT22;5630;49.342;10.802;2023-12-22T00:58:11;3.90;99.90
11152;DHT22;5630;49.342;10.802;2023-12-22T01:00:36;3.90;99.90
11152;DHT22;5630;49.342;10.802;2023-12-22T01:03:02;3.90;99.90
11152;DHT22;5630;49.342;10.802;2023-12-22T01:05:28;4.00;99.90
11152;DHT22;5630;49.342;10.802;2023-12-22T01:07:53;3.90;99.90
11152;DHT22;5630;49.342;10.802;2023-12-22T01:10:19;3.90;99.90
11152;DHT22;5630;49.342;10.802;2023-12-22T01:12:44;3.90;99.90
11152;DHT22;5630;49.342;10.802;2023-12-22T01:15:10;3.90;99.90
11152;DHT22;5630;49.342;10.802;2023-12-22T01:17:36;3.90;99.90
11152;DHT22;5630;49.342;10.802;2023-12-22T01:20:02;3.90;99.90
11152;DHT22;5630;49.342;10.802;2023-12-22T01:22:27;3.90;99.90
11152;DHT22;5630;49.342;10.802;2023-12-22T01:24:53;3.80;99.90
11152;DHT22;5630;49.342;10.802;2023-12-22T01:27:18;3.80;99.90
11152;DHT22;5630;49.342;10.802;2023-12-22T01:29:45;3.80;99.90
11152;DHT22;5630;49.342;10.802;2023-12-22T01:32:10;3.80;99.90
11152;DHT22;5630;49.342;10.802;2023-12-22T01:34:36;3.80;99.90
11152;DHT22;5630;49.342;10.802;2023-12-22T01:37:01;3.80;99.90
11152;DHT22;5630;49.342;10.802;2023-12-22T01:39:27;3.80;99.90
11152;DHT22;5630;49.342;10.802;2023-12-22T01:41:52;3.80;99.90
11152;DHT22;5630;49.342;10.802;2023-12-22T01:44:18;3.70;99.90
11152;DHT22;5630;49.342;10.802;2023-12-22T01:46:44;3.80;99.90
11152;DHT22;5630;49.342;10.802;2023-12-22T01:49:10;3.80;99.90
11152;DHT22;5630;49.342;10.802;2023-12-22T01:51:38;3.70;99.90
11152;DHT22;5630;49.342;10.802;2023-12-22T01:54:05;3.80;99.90
11152;DHT22;5630;49.342;10.802;2023-12-22T01:56:31;3.80;99.90
11152;DHT22;5630;49.342;10.802;2023-12-22T01:58:59;3.80;99.90
11152;DHT22;5630;49.342;10.802;2023-12-22T02:01:26;3.80;99.90
11152;DHT22;5630;49.342;10.802;2023-12-22T02:03:52;3.80;99.90
11152;DHT22;5630;49.342;10.802;2023-12-22T02:06:19;3.90;99.90
11152;DHT22;5630;49.342;10.802;2023-12-22T02:08:48;3.90;99.90
11152;DHT22;5630;49.342;10.802;2023-12-22T02:11:15;3.90;99.90
11152;DHT22;5630;49.342;10.802;2023-12-22T02:13:44;3.80;99.90
11152;DHT22;5630;49.342;10.802;2023-12-22T02:16:31;3.80;99.90
11152;DHT22;5630;49.342;10.802;2023-12-22T02:18:59;3.80;99.90
11152;DHT22;5630;49.342;10.802;2023-12-22T02:21:26;3.80;99.90
11152;DHT22;5630;49.342;10.802;2023-12-22T02:23:52;3.80;99.90
11152;DHT22;5630;49.342;10.802;2023-12-22T02:26:25;3.60;99.90
11152;DHT22;5630;49.342;10.802;2023-12-22T02:28:51;3.60;99.90
11152;DHT22;5630;49.342;10.802;2023-12-22T02:31:22;3.60;99.90
11152;DHT22;5630;49.342;10.802;2023-12-22T02:33:53;3.60;99.90
11152;DHT22;5630;49.342;10.802;2023-12-22T02:36:21;3.60;99.90
11152;DHT22;5630;49.342;10.802;2023-12-22T02:38:47;3.60;99.90
11152;DHT22;5630;49.342;10.802;2023-12-22T02:41:14;3.60;99.90
11152;DHT22;5630;49.342;10.802;2023-12-22T02:43:39;3.70;99.90
11152;DHT22;5630;49.342;10.802;2023-12-22T02:46:13;3.70;99.90
11152;DHT22;5630;49.342;10.802;2023-12-22T02:48:38;3.70;99.90
11152;DHT22;5630;49.342;10.802;2023-12-22T02:51:04;3.70;99.90
11152;DHT22;5630;49.342;10.802;2023-12-22T02:53:30;3.70;99.90
11152;DHT22;5630;49.342;10.802;2023-12-22T02:55:55;3.70;99.90
11152;DHT22;5630;49.342;10.802;2023-12-22T02:58:21;3.60;99.90
11152;DHT22;5630;49.342;10.802;2023-12-22T03:00:47;3.60;99.90
11152;DHT22;5630;49.342;10.802;2023-12-22T03:03:12;3.60;99.90
11152;DHT22;5630;49.342;10.802;2023-12-22T03:05:38;3.50;99.90
11152;DHT22;5630;49.342;10.802;2023-12-22T03:08:04;3.30;99.90
11152;DHT22;5630;49.342;10.802;2023-12-22T03:10:30;3.10;99.90
11152;DHT22;5630;49.342;10.802;2023-12-22T03:12:55;2.90;99.90
11152;DHT22;5630;49.342;10.802;2023-12-22T03:15:21;2.80;99.90
11152;DHT22;5630;49.342;10.802;2023-12-22T03:17:47;2.80;99.90
11152;DHT22;5630;49.342;10.802;2023-12-22T03:20:12;2.60;99.90
11152;DHT22;5630;49.342;10.802;2023-12-22T03:22:38;2.70;99.90
11152;DHT22;5630;49.342;10.802;2023-12-22T03:25:04;2.70;99.90
11152;DHT22;5630;49.342;10.802;2023-12-22T03:27:29;2.70;99.90
11152;DHT22;5630;49.342;10.802;2023-12-22T03:29:55;2.70;99.90
11152;DHT22;5630;49.342;10.802;2023-12-22T03:32:20;2.70;99.90
11152;DHT22;5630;49.342;10.802;2023-12-22T03:34:46;2.80;99.90
11152;DHT22;5630;49.342;10.802;2023-12-22T03:37:11;2.80;99.90
11152;DHT22;5630;49.342;10.802;2023-12-22T03:39:37;2.80;99.90
11152;DHT22;5630;49.342;10.802;2023-12-22T03:42:03;2.80;99.90
11152;DHT22;5630;49.342;10.802;2023-12-22T03:44:28;2.80;99.90
11152;DHT22;5630;49.342;10.802;2023-12-22T03:46:54;2.90;99.90
11152;DHT22;5630;49.342;10.802;2023-12-22T03:49:19;2.80;99.90
11152;DHT22;5630;49.342;10.802;2023-12-22T03:51:45;2.90;99.90
11152;DHT22;5630;49.342;10.802;2023-12-22T03:54:11;2.90;99.90
11152;DHT22;5630;49.342;10.802;2023-12-22T03:56:37;2.90;99.90
11152;DHT22;5630;49.342;10.802;2023-12-22T03:59:02;2.90;99.90
11152;DHT22;5630;49.342;10.802;2023-12-22T04:01:28;2.80;99.90
11152;DHT22;5630;49.342;10.802;2023-12-22T04:03:53;2.80;99.90
11152;DHT22;5630;49.342;10.802;2023-12-22T04:06:19;2.80;99.90
11152;DHT22;5630;49.342;10.802;2023-12-22T04:08:45;2.80;99.90
11152;DHT22;5630;49.342;10.802;2023-12-22T04:11:11;2.80;99.90
11152;DHT22;5630;49.342;10.802;2023-12-22T04:13:36;2.80;99.90
11152;DHT22;5630;49.342;10.802;2023-12-22T04:16:02;2.80;99.90
11152;DHT22;5630;49.342;10.802;2023-12-22T04:18:30;2.80;99.90
11152;DHT22;5630;49.342;10.802;2023-12-22T04:20:55;2.80;99.90
11152;DHT22;5630;49.342;10.802;2023-12-22T04:23:21;2.80;99.90
11152;DHT22;5630;49.342;10.802;2023-12-22T04:25:47;2.70;99.90
11152;DHT22;5630;49.342;10.802;2023-12-22T04:28:13;2.70;99.90
11152;DHT22;5630;49.342;10.802;2023-12-22T04:30:38;2.70;99.90
11152;DHT22;5630;49.342;10.802;2023-12-22T04:33:04;2.70;99.90
11152;DHT22;5630;49.342;10.802;2023-12-22T04:35:29;2.70;99.90
11152;DHT22;5630;49.342;10.802;2023-12-22T04:37:55;2.80;99.90
11152;DHT22;5630;49.342;10.802;2023-12-22T04:40:20;2.80;99.90
11152;DHT22;5630;49.342;10.802;2023-12-22T04:42:46;2.80;99.90
11152;DHT22;5630;49.342;10.802;2023-12-22T04:45:12;2.80;99.90
11152;DHT22;5630;49.342;10.802;2023-12-22T04:47:37;2.80;99.90
11152;DHT22;5630;49.342;10.802;2023-12-22T04:50:03;2.90;99.90
11152;DHT22;5630;49.342;10.802;2023-12-22T04:52:29;2.80;99.90
11152;DHT22;5630;49.342;10.802;2023-12-22T04:54:55;2.80;99.90
11152;DHT22;5630;49.342;10.802;2023-12-22T04:57:21;2.80;99.90
11152;DHT22;5630;49.342;10.802;2023-12-22T04:59:47;2.80;99.90
11152;DHT22;5630;49.342;10.802;2023-12-22T05:02:13;2.80;99.90
11152;DHT22;5630;49.342;10.802;2023-12-22T05:04:38;2.80;99.90
11152;DHT22;5630;49.342;10.802;2023-12-22T05:07:04;2.80;99.90
11152;DHT22;5630;49.342;10.802;2023-12-22T05:09:33;2.80;99.90
11152;DHT22;5630;49.342;10.802;2023-12-22T05:11:59;2.80;99.90
11152;DHT22;5630;49.342;10.802;2023-12-22T05:14:24;2.80;99.90
11152;DHT22;5630;49.342;10.802;2023-12-22T05:16:50;2.80;99.90
11152;DHT22;5630;49.342;10.802;2023-12-22T05:19:20;2.90;99.90
11152;DHT22;5630;49.342;10.802;2023-12-22T05:21:46;2.90;99.90
11152;DHT22;5630;49.342;10.802;2023-12-22T05:24:11;2.90;99.90
11152;DHT22;5630;49.342;10.802;2023-12-22T05:26:37;2.90;99.90
11152;DHT22;5630;49.342;10.802;2023-12-22T05:29:02;2.80;99.90
11152;DHT22;5630;49.342;10.802;2023-12-22T05:31:28;2.80;99.90
11152;DHT22;5630;49.342;10.802;2023-12-22T05:33:56;2.90;99.90
11152;DHT22;5630;49.342;10.802;2023-12-22T05:36:21;2.80;99.90
11152;DHT22;5630;49.342;10.802;2023-12-22T05:38:47;2.70;99.90
11152;DHT22;5630;49.342;10.802;2023-12-22T05:41:13;2.70;99.90
11152;DHT22;5630;49.342;10.802;2023-12-22T05:43:38;2.70;99.90
11152;DHT22;5630;49.342;10.802;2023-12-22T05:46:04;2.80;99.90
11152;DHT22;5630;49.342;10.802;2023-12-22T05:48:29;2.70;99.90
11152;DHT22;5630;49.342;10.802;2023-12-22T05:50:58;2.70;99.90
11152;DHT22;5630;49.342;10.802;2023-12-22T05:53:24;2.70;99.90
11152;DHT22;5630;49.342;10.802;2023-12-22T05:55:49;2.70;99.90
11152;DHT22;5630;49.342;10.802;2023-12-22T05:58:15;2.80;99.90
11152;DHT22;5630;49.342;10.802;2023-12-22T06:00:40;2.80;99.90
11152;DHT22;5630;49.342;10.802;2023-12-22T06:03:06;2.80;99.90
11152;DHT22;5630;49.342;10.802;2023-12-22T06:05:31;2.80;99.90
11152;DHT22;5630;49.342;10.802;2023-12-22T06:07:57;2.90;99.90
11152;DHT22;5630;49.342;10.802;2023-12-22T06:10:23;3.00;99.90
11152;DHT22;5630;49.342;10.802;2023-12-22T06:12:48;3.00;99.90
11152;DHT22;5630;49.342;10.802;2023-12-22T06:15:14;3.10;99.90
11152;DHT22;5630;49.342;10.802;2023-12-22T06:17:39;3.40;99.90
11152;DHT22;5630;49.342;10.802;2023-12-22T06:20:05;3.60;99.90
11152;DHT22;5630;49.342;10.802;2023-12-22T06:22:31;3.90;99.90
11152;DHT22;5630;49.342;10.802;2023-12-22T06:24:58;3.90;99.90
11152;DHT22;5630;49.342;10.802;2023-12-22T06:27:23;3.60;99.90
11152;DHT22;5630;49.342;10.802;2023-12-22T06:29:49;3.60;99.90
11152;DHT22;5630;49.342;10.802;2023-12-22T06:32:14;3.40;99.90
11152;DHT22;5630;49.342;10.802;2023-12-22T06:34:40;3.40;99.90
11152;DHT22;5630;49.342;10.802;2023-12-22T06:37:05;3.30;99.90
11152;DHT22;5630;49.342;10.802;2023-12-22T06:39:33;3.30;99.90
11152;DHT22;5630;49.342;10.802;2023-12-22T06:41:58;3.30;99.90
11152;DHT22;5630;49.342;10.802;2023-12-22T06:44:24;3.30;99.90
11152;DHT22;5630;49.342;10.802;2023-12-22T06:46:51;3.40;99.90
11152;DHT22;5630;49.342;10.802;2023-12-22T06:49:16;3.30;99.90
11152;DHT22;5630;49.342;10.802;2023-12-22T06:51:42;3.50;99.90
11152;DHT22;5630;49.342;10.802;2023-12-22T06:54:07;3.50;99.90
11152;DHT22;5630;49.342;10.802;2023-12-22T06:56:34;3.50;99.90
11152;DHT22;5630;49.342;10.802;2023-12-22T06:59:00;3.50;99.90
11152;DHT22;5630;49.342;10.802;2023-12-22T07:01:34;3.50;99.90
11152;DHT22;5630;49.342;10.802;2023-12-22T07:04:02;3.50;99.90
11152;DHT22;5630;49.342;10.802;2023-12-22T07:06:31;3.50;99.90
11152;DHT22;5630;49.342;10.802;2023-12-22T07:11:42;3.60;99.90
11152;DHT22;5630;49.342;10.802;2023-12-22T07:14:08;3.50;99.90
11152;DHT22;5630;49.342;10.802;2023-12-22T07:16:34;3.60;99.90
11152;DHT22;5630;49.342;10.802;2023-12-22T07:19:00;3.60;99.90
11152;DHT22;5630;49.342;10.802;2023-12-22T07:21:26;3.60;99.90
11152;DHT22;5630;49.342;10.802;2023-12-22T07:23:51;3.60;99.90
11152;DHT22;5630;49.342;10.802;2023-12-22T07:26:17;3.60;99.90
11152;DHT22;5630;49.342;10.802;2023-12-22T07:28:42;3.70;99.90
11152;DHT22;5630;49.342;10.802;2023-12-22T07:31:08;3.60;99.90
11152;DHT22;5630;49.342;10.802;2023-12-22T07:33:34;3.60;99.90
11152;DHT22;5630;49.342;10.802;2023-12-22T07:35:59;3.60;99.90
11152;DHT22;5630;49.342;10.802;2023-12-22T07:38:25;3.70;99.90
11152;DHT22;5630;49.342;10.802;2023-12-22T07:40:50;3.80;99.90
11152;DHT22;5630;49.342;10.802;2023-12-22T07:43:16;3.80;99.90
11152;DHT22;5630;49.342;10.802;2023-12-22T07:45:42;3.80;99.90
11152;DHT22;5630;49.342;10.802;2023-12-22T07:48:07;3.80;99.90
11152;DHT22;5630;49.342;10.802;2023-12-22T07:50:33;3.90;99.90
11152;DHT22;5630;49.342;10.802;2023-12-22T07:52:59;3.90;99.90
11152;DHT22;5630;49.342;10.802;2023-12-22T07:55:25;4.00;99.90
11152;DHT22;5630;49.342;10.802;2023-12-22T07:57:51;4.00;99.90
11152;DHT22;5630;49.342;10.802;2023-12-22T08:00:17;4.00;99.90
11152;DHT22;5630;49.342;10.802;2023-12-22T08:02:43;4.10;99.90
11152;DHT22;5630;49.342;10.802;2023-12-22T08:05:09;4.10;99.90
11152;DHT22;5630;49.342;10.802;2023-12-22T08:07:35;4.10;99.90
11152;DHT22;5630;49.342;10.802;2023-12-22T08:10:02;4.20;99.90
11152;DHT22;5630;49.342;10.802;2023-12-22T08:12:27;4.10;99.90
11152;DHT22;5630;49.342;10.802;2023-12-22T08:14:53;4.20;99.90
11152;DHT22;5630;49.342;10.802;2023-12-22T08:17:19;4.20;99.90
11152;DHT22;5630;49.342;10.802;2023-12-22T08:19:45;4.30;99.90
11152;DHT22;5630;49.342;10.802;2023-12-22T08:22:10;4.30;99.90
11152;DHT22;5630;49.342;10.802;2023-12-22T08:24:38;4.30;99.90
11152;DHT22;5630;49.342;10.802;2023-12-22T08:27:04;4.30;99.90
11152;DHT22;5630;49.342;10.802;2023-12-22T08:29:31;4.40;99.90
11152;DHT22;5630;49.342;10.802;2023-12-22T08:31:57;4.40;99.90
11152;DHT22;5630;49.342;10.802;2023-12-22T08:34:22;4.50;99.90
11152;DHT22;5630;49.342;10.802;2023-12-22T08:36:48;4.50;99.90
11152;DHT22;5630;49.342;10.802;2023-12-22T08:39:13;4.60;99.90
11152;DHT22;5630;49.342;10.802;2023-12-22T08:41:39;4.60;99.90
11152;DHT22;5630;49.342;10.802;2023-12-22T08:44:05;4.60;99.90
11152;DHT22;5630;49.342;10.802;2023-12-22T08:46:31;4.70;99.90
11152;DHT22;5630;49.342;10.802;2023-12-22T08:48:57;4.80;99.90
11152;DHT22;5630;49.342;10.802;2023-12-22T08:51:25;4.80;99.90
11152;DHT22;5630;49.342;10.802;2023-12-22T08:53:51;4.80;99.90
11152;DHT22;5630;49.342;10.802;2023-12-22T08:56:18;4.80;99.90
11152;DHT22;5630;49.342;10.802;2023-12-22T08:58:43;4.80;99.90
11152;DHT22;5630;49.342;10.802;2023-12-22T09:01:14;4.80;99.90
11152;DHT22;5630;49.342;10.802;2023-12-22T09:03:41;4.90;99.90
11152;DHT22;5630;49.342;10.802;2023-12-22T09:06:14;5.00;99.90
11152;DHT22;5630;49.342;10.802;2023-12-22T09:08:41;5.00;99.90
11152;DHT22;5630;49.342;10.802;2023-12-22T09:11:06;4.90;99.90
11152;DHT22;5630;49.342;10.802;2023-12-22T09:13:32;5.00;99.90
11152;DHT22;5630;49.342;10.802;2023-12-22T09:15:58;5.00;99.90
11152;DHT22;5630;49.342;10.802;2023-12-22T09:18:24;5.00;99.90
11152;DHT22;5630;49.342;10.802;2023-12-22T09:20:49;5.00;99.90
11152;DHT22;5630;49.342;10.802;2023-12-22T09:23:15;5.00;99.90
11152;DHT22;5630;49.342;10.802;2023-12-22T09:25:40;5.10;99.90
11152;DHT22;5630;49.342;10.802;2023-12-22T09:28:06;5.10;99.90
11152;DHT22;5630;49.342;10.802;2023-12-22T09:30:31;5.20;99.90
11152;DHT22;5630;49.342;10.802;2023-12-22T09:32:57;5.20;99.90
11152;DHT22;5630;49.342;10.802;2023-12-22T09:35:23;5.10;99.90
11152;DHT22;5630;49.342;10.802;2023-12-22T09:37:50;5.10;99.90
11152;DHT22;5630;49.342;10.802;2023-12-22T09:40:16;5.10;99.90
11152;DHT22;5630;49.342;10.802;2023-12-22T09:42:42;5.10;99.90
11152;DHT22;5630;49.342;10.802;2023-12-22T09:45:11;5.00;99.90
11152;DHT22;5630;49.342;10.802;2023-12-22T09:47:41;5.00;99.90
11152;DHT22;5630;49.342;10.802;2023-12-22T09:50:07;5.00;99.90
11152;DHT22;5630;49.342;10.802;2023-12-22T09:52:35;5.00;99.90
11152;DHT22;5630;49.342;10.802;2023-12-22T09:55:01;4.90;99.90
11152;DHT22;5630;49.342;10.802;2023-12-22T09:57:28;4.90;99.90
11152;DHT22;5630;49.342;10.802;2023-12-22T09:59:54;5.00;99.90
11152;DHT22;5630;49.342;10.802;2023-12-22T10:02:21;5.00;99.90
11152;DHT22;5630;49.342;10.802;2023-12-22T10:04:47;5.10;99.90
11152;DHT22;5630;49.342;10.802;2023-12-22T10:07:14;5.10;99.90
11152;DHT22;5630;49.342;10.802;2023-12-22T10:09:41;5.10;99.90
11152;DHT22;5630;49.342;10.802;2023-12-22T10:12:09;5.20;99.90
11152;DHT22;5630;49.342;10.802;2023-12-22T10:14:37;5.30;99.90
11152;DHT22;5630;49.342;10.802;2023-12-22T10:17:04;5.30;99.90
11152;DHT22;5630;49.342;10.802;2023-12-22T10:19:30;5.40;99.90
11152;DHT22;5630;49.342;10.802;2023-12-22T10:21:56;5.30;99.90
11152;DHT22;5630;49.342;10.802;2023-12-22T10:24:41;5.40;99.90
11152;DHT22;5630;49.342;10.802;2023-12-22T10:27:10;5.50;99.90
11152;DHT22;5630;49.342;10.802;2023-12-22T10:29:36;5.40;99.90
11152;DHT22;5630;49.342;10.802;2023-12-22T10:32:03;5.40;99.90
11152;DHT22;5630;49.342;10.802;2023-12-22T10:34:32;5.30;99.90
11152;DHT22;5630;49.342;10.802;2023-12-22T10:37:01;5.30;99.90
11152;DHT22;5630;49.342;10.802;2023-12-22T10:39:31;5.30;99.90
11152;DHT22;5630;49.342;10.802;2023-12-22T10:41:57;5.20;99.90
11152;DHT22;5630;49.342;10.802;2023-12-22T10:44:24;5.10;99.90
11152;DHT22;5630;49.342;10.802;2023-12-22T10:46:51;5.10;99.90
11152;DHT22;5630;49.342;10.802;2023-12-22T10:49:17;5.10;99.90
11152;DHT22;5630;49.342;10.802;2023-12-22T10:51:42;5.10;99.90
11152;DHT22;5630;49.342;10.802;2023-12-22T10:54:08;5.10;99.90
11152;DHT22;5630;49.342;10.802;2023-12-22T10:56:34;5.00;99.90
11152;DHT22;5630;49.342;10.802;2023-12-22T10:59:00;5.00;99.90
11152;DHT22;5630;49.342;10.802;2023-12-22T11:01:29;4.90;99.90
11152;DHT22;5630;49.342;10.802;2023-12-22T11:03:58;4.90;99.90
11152;DHT22;5630;49.342;10.802;2023-12-22T11:06:27;4.90;99.90
11152;DHT22;5630;49.342;10.802;2023-12-22T11:08:56;4.90;99.90
11152;DHT22;5630;49.342;10.802;2023-12-22T11:11:30;4.90;99.90
11152;DHT22;5630;49.342;10.802;2023-12-22T11:14:00;4.90;99.90
11152;DHT22;5630;49.342;10.802;2023-12-22T11:16:28;5.00;99.90
11152;DHT22;5630;49.342;10.802;2023-12-22T11:18:55;5.00;99.90
11152;DHT22;5630;49.342;10.802;2023-12-22T11:21:22;5.00;99.90
11152;DHT22;5630;49.342;10.802;2023-12-22T11:23:50;5.00;99.90
11152;DHT22;5630;49.342;10.802;2023-12-22T11:26:21;5.00;99.90
11152;DHT22;5630;49.342;10.802;2023-12-22T11:28:48;5.10;99.90
11152;DHT22;5630;49.342;10.802;2023-12-22T11:31:15;5.10;99.90
11152;DHT22;5630;49.342;10.802;2023-12-22T11:33:47;5.20;99.90
11152;DHT22;5630;49.342;10.802;2023-12-22T11:36:14;5.20;99.90
11152;DHT22;5630;49.342;10.802;2023-12-22T11:38:41;5.30;99.90
11152;DHT22;5630;49.342;10.802;2023-12-22T11:41:21;5.40;99.90
11152;DHT22;5630;49.342;10.802;2023-12-22T11:43:47;5.40;99.90
11152;DHT22;5630;49.342;10.802;2023-12-22T11:46:17;5.50;99.90
11152;DHT22;5630;49.342;10.802;2023-12-22T11:48:50;5.50;99.90
11152;DHT22;5630;49.342;10.802;2023-12-22T11:51:17;5.60;99.90
11152;DHT22;5630;49.342;10.802;2023-12-22T11:53:43;5.70;99.90
11152;DHT22;5630;49.342;10.802;2023-12-22T11:56:09;5.70;99.90
11152;DHT22;5630;49.342;10.802;2023-12-22T11:58:42;5.70;99.90
11152;DHT22;5630;49.342;10.802;2023-12-22T12:01:12;5.70;99.90
11152;DHT22;5630;49.342;10.802;2023-12-22T12:03:59;5.70;99.90
11152;DHT22;5630;49.342;10.802;2023-12-22T12:08:53;5.80;99.90
11152;DHT22;5630;49.342;10.802;2023-12-22T12:11:19;5.80;99.90
11152;DHT22;5630;49.342;10.802;2023-12-22T12:13:46;5.80;99.90
11152;DHT22;5630;49.342;10.802;2023-12-22T12:16:19;5.90;99.90
11152;DHT22;5630;49.342;10.802;2023-12-22T12:18:47;5.90;99.90
11152;DHT22;5630;49.342;10.802;2023-12-22T12:21:13;5.90;99.90
11152;DHT22;5630;49.342;10.802;2023-12-22T12:23:40;6.00;99.90
11152;DHT22;5630;49.342;10.802;2023-12-22T12:26:11;6.00;99.90
11152;DHT22;5630;49.342;10.802;2023-12-22T12:28:37;6.20;99.90
11152;DHT22;5630;49.342;10.802;2023-12-22T12:31:06;6.60;99.90
11152;DHT22;5630;49.342;10.802;2023-12-22T12:33:32;6.70;99.90
11152;DHT22;5630;49.342;10.802;2023-12-22T12:35:59;6.50;99.90
11152;DHT22;5630;49.342;10.802;2023-12-22T12:38:44;6.40;99.90
11152;DHT22;5630;49.342;10.802;2023-12-22T12:41:15;6.30;99.90
11152;DHT22;5630;49.342;10.802;2023-12-22T12:43:42;6.20;99.90
11152;DHT22;5630;49.342;10.802;2023-12-22T12:46:08;6.30;99.90
11152;DHT22;5630;49.342;10.802;2023-12-22T12:48:34;6.30;99.90
11152;DHT22;5630;49.342;10.802;2023-12-22T12:51:06;6.30;99.90
11152;DHT22;5630;49.342;10.802;2023-12-22T12:53:32;6.20;99.90
11152;DHT22;5630;49.342;10.802;2023-12-22T12:55:59;6.20;99.90
11152;DHT22;5630;49.342;10.802;2023-12-22T12:58:32;6.30;99.90
11152;DHT22;5630;49.342;10.802;2023-12-22T13:01:08;6.30;99.90
11152;DHT22;5630;49.342;10.802;2023-12-22T13:03:52;6.30;99.90
11152;DHT22;5630;49.342;10.802;2023-12-22T13:06:19;6.30;99.90
11152;DHT22;5630;49.342;10.802;2023-12-22T13:08:51;6.30;99.90
11152;DHT22;5630;49.342;10.802;2023-12-22T13:11:25;6.30;99.90
11152;DHT22;5630;49.342;10.802;2023-12-22T13:13:52;6.30;99.90
11152;DHT22;5630;49.342;10.802;2023-12-22T13:16:22;6.30;99.90
11152;DHT22;5630;49.342;10.802;2023-12-22T13:18:48;6.30;99.90
11152;DHT22;5630;49.342;10.802;2023-12-22T13:21:14;6.30;99.90
11152;DHT22;5630;49.342;10.802;2023-12-22T13:23:41;6.40;99.90
11152;DHT22;5630;49.342;10.802;2023-12-22T13:26:16;6.40;99.90
11152;DHT22;5630;49.342;10.802;2023-12-22T13:28:42;6.40;99.90
11152;DHT22;5630;49.342;10.802;2023-12-22T13:31:10;6.30;99.90
11152;DHT22;5630;49.342;10.802;2023-12-22T13:33:39;6.30;99.90
11152;DHT22;5630;49.342;10.802;2023-12-22T13:36:05;6.30;99.90
11152;DHT22;5630;49.342;10.802;2023-12-22T13:38:31;6.30;99.90
11152;DHT22;5630;49.342;10.802;2023-12-22T13:40:57;6.30;99.90
11152;DHT22;5630;49.342;10.802;2023-12-22T13:43:28;6.30;99.90
11152;DHT22;5630;49.342;10.802;2023-12-22T13:45:54;6.30;99.90
11152;DHT22;5630;49.342;10.802;2023-12-22T13:48:19;6.30;99.90
11152;DHT22;5630;49.342;10.802;2023-12-22T13:50:58;6.30;99.90
11152;DHT22;5630;49.342;10.802;2023-12-22T13:53:24;6.30;99.90
11152;DHT22;5630;49.342;10.802;2023-12-22T13:55:56;6.30;99.90
11152;DHT22;5630;49.342;10.802;2023-12-22T13:58:22;6.30;99.90
11152;DHT22;5630;49.342;10.802;2023-12-22T14:00:48;6.30;99.90
11152;DHT22;5630;49.342;10.802;2023-12-22T14:03:14;6.40;99.90
11152;DHT22;5630;49.342;10.802;2023-12-22T14:05:50;6.40;99.90
11152;DHT22;5630;49.342;10.802;2023-12-22T14:08:17;6.40;99.90
11152;DHT22;5630;49.342;10.802;2023-12-22T14:10:50;6.50;99.90
11152;DHT22;5630;49.342;10.802;2023-12-22T14:13:15;6.50;99.90
11152;DHT22;5630;49.342;10.802;2023-12-22T14:15:44;6.50;99.90
11152;DHT22;5630;49.342;10.802;2023-12-22T14:18:11;6.50;99.90
11152;DHT22;5630;49.342;10.802;2023-12-22T14:20:37;6.60;99.90
11152;DHT22;5630;49.342;10.802;2023-12-22T14:23:02;6.60;99.90
11152;DHT22;5630;49.342;10.802;2023-12-22T14:25:29;6.60;99.90
11152;DHT22;5630;49.342;10.802;2023-12-22T14:27:55;6.60;99.90
11152;DHT22;5630;49.342;10.802;2023-12-22T14:30:25;6.70;99.90
11152;DHT22;5630;49.342;10.802;2023-12-22T14:32:51;6.70;99.90
11152;DHT22;5630;49.342;10.802;2023-12-22T14:35:16;6.70;99.90
11152;DHT22;5630;49.342;10.802;2023-12-22T14:37:42;6.70;99.90
11152;DHT22;5630;49.342;10.802;2023-12-22T14:40:08;6.70;99.90
11152;DHT22;5630;49.342;10.802;2023-12-22T14:42:34;6.70;99.90
11152;DHT22;5630;49.342;10.802;2023-12-22T14:45:00;6.70;99.90
11152;DHT22;5630;49.342;10.802;2023-12-22T14:47:27;6.70;99.90
11152;DHT22;5630;49.342;10.802;2023-12-22T14:49:53;6.70;99.90
11152;DHT22;5630;49.342;10.802;2023-12-22T14:52:18;6.60;99.90
11152;DHT22;5630;49.342;10.802;2023-12-22T14:54:45;6.50;99.90
11152;DHT22;5630;49.342;10.802;2023-12-22T14:57:11;6.60;99.90
11152;DHT22;5630;49.342;10.802;2023-12-22T14:59:37;6.50;99.90
11152;DHT22;5630;49.342;10.802;2023-12-22T15:02:03;6.50;99.90
11152;DHT22;5630;49.342;10.802;2023-12-22T15:04:31;6.50;99.90
11152;DHT22;5630;49.342;10.802;2023-12-22T15:06:58;6.40;99.90
11152;DHT22;5630;49.342;10.802;2023-12-22T15:09:24;6.40;99.90
11152;DHT22;5630;49.342;10.802;2023-12-22T15:11:49;6.40;99.90
11152;DHT22;5630;49.342;10.802;2023-12-22T15:14:16;6.40;99.90
11152;DHT22;5630;49.342;10.802;2023-12-22T15:16:42;6.40;99.90
11152;DHT22;5630;49.342;10.802;2023-12-22T15:19:11;6.50;99.90
11152;DHT22;5630;49.342;10.802;2023-12-22T15:21:37;6.50;99.90
11152;DHT22;5630;49.342;10.802;2023-12-22T15:24:07;6.60;99.90
11152;DHT22;5630;49.342;10.802;2023-12-22T15:26:33;6.60;99.90
11152;DHT22;5630;49.342;10.802;2023-12-22T15:28:59;6.60;99.90
11152;DHT22;5630;49.342;10.802;2023-12-22T15:31:25;6.60;99.90
11152;DHT22;5630;49.342;10.802;2023-12-22T15:33:50;6.70;99.90
11152;DHT22;5630;49.342;10.802;2023-12-22T15:36:17;6.60;99.90
11152;DHT22;5630;49.342;10.802;2023-12-22T15:38:44;6.60;99.90
11152;DHT22;5630;49.342;10.802;2023-12-22T15:41:10;6.70;99.90
11152;DHT22;5630;49.342;10.802;2023-12-22T15:43:36;6.70;99.90
11152;DHT22;5630;49.342;10.802;2023-12-22T15:46:08;6.70;99.90
11152;DHT22;5630;49.342;10.802;2023-12-22T15:48:34;6.70;99.90